Time;durP1;ratioP1;P1;durP2;ratioP2;P2;SDS_P1;SDS_P2;PMS_P1;PMS_P2;Temp;Humidity;BMP_temperature;BMP_pressure;BME280_temperature;BME280_humidity;BME280_pressure;Samples;Min_cycle;Max_cycle;Signal;HPM_P1;HPM_P2
2022/07/26 00:02:08;;;;;;;3.23;1.80;;;22.70;98.00;;;;;;5012798;28;20815;-71
2022/07/26 00:04:35;;;;;;;2.73;1.97;;;22.70;98.00;;;;;;4979330;28;20463;-71
2022/07/26 00:07:03;;;;;;;2.20;1.70;;;22.70;98.00;;;;;;5012876;28;20506;-70
2022/07/26 00:09:31;;;;;;;2.73;2.03;;;22.80;98.00;;;;;;5012887;28;20475;-71
2022/07/26 00:12:01;;;;;;;3.20;1.80;;;22.80;98.00;;;;;;5012454;28;20463;-71
2022/07/26 00:14:29;;;;;;;2.30;2.00;;;22.80;98.00;;;;;;4995135;28;20530;-70
2022/07/26 00:16:56;;;;;;;3.00;1.97;;;22.90;98.00;;;;;;5012225;28;20455;-70
2022/07/26 00:19:23;;;;;;;3.13;2.10;;;22.90;98.00;;;;;;5012209;28;20464;-70
2022/07/26 00:22:32;;;;;;;2.40;1.77;;;22.80;98.00;;;;;;5012057;28;20949;-70
2022/07/26 00:24:39;;;;;;;3.70;2.17;;;22.70;98.00;;;;;;5012018;28;20811;-69
2022/07/26 00:27:07;;;;;;;2.37;1.83;;;22.60;98.00;;;;;;5012302;28;20809;-69
2022/07/26 00:29:34;;;;;;;2.20;1.80;;;22.70;98.00;;;;;;5012064;28;21016;-69
2022/07/26 00:32:01;;;;;;;1.83;1.67;;;22.60;98.00;;;;;;5012158;28;20522;-69
2022/07/26 00:34:31;;;;;;;2.47;1.80;;;22.60;98.00;;;;;;5012147;28;20529;-71
2022/07/26 00:36:59;;;;;;;2.40;1.80;;;22.60;98.00;;;;;;5011905;28;21016;-71
2022/07/26 00:39:27;;;;;;;2.67;1.80;;;22.60;98.00;;;;;;5012049;28;20950;-71
2022/07/26 00:41:56;;;;;;;2.37;1.70;;;22.70;98.00;;;;;;5012028;28;20471;-70
2022/07/26 00:44:23;;;;;;;2.13;1.90;;;22.80;98.00;;;;;;5011908;28;20455;-69
2022/07/26 00:46:51;;;;;;;2.93;1.83;;;22.80;98.00;;;;;;4994589;28;20462;-70
2022/07/26 00:49:19;;;;;;;2.20;1.73;;;22.90;98.00;;;;;;4994490;28;20463;-69
2022/07/26 00:51:47;;;;;;;2.07;1.50;;;22.90;98.00;;;;;;5011795;28;20986;-69
2022/07/26 00:54:17;;;;;;;2.33;1.63;;;23.00;98.00;;;;;;5011641;28;20467;-69
2022/07/26 00:56:45;;;;;;;2.70;1.70;;;23.10;98.00;;;;;;5011799;28;20456;-70
2022/07/26 00:59:14;;;;;;;1.83;1.73;;;23.10;98.00;;;;;;4994390;28;20484;-72
2022/07/26 01:01:41;;;;;;;3.60;2.43;;;23.10;98.00;;;;;;5011744;28;20848;-71
2022/07/26 01:04:08;;;;;;;2.33;1.70;;;23.10;98.00;;;;;;5011778;28;20808;-72
2022/07/26 01:06:36;;;;;;;3.17;2.00;;;23.10;98.00;;;;;;5011699;28;20471;-70
2022/07/26 01:09:04;;;;;;;2.80;1.70;;;23.10;98.00;;;;;;4994433;28;20455;-70
2022/07/26 01:11:32;;;;;;;2.30;1.70;;;23.20;98.00;;;;;;5011733;28;20510;-71
2022/07/26 01:14:02;;;;;;;3.60;1.70;;;23.40;98.00;;;;;;4994417;28;20513;-69
2022/07/26 01:16:30;;;;;;;3.10;1.80;;;23.50;97.30;;;;;;5011546;28;20451;-70
2022/07/26 01:18:57;;;;;;;2.40;1.83;;;23.40;97.10;;;;;;5011203;28;20491;-70
2022/07/26 01:21:30;;;;;;;3.57;1.63;;;23.60;97.50;;;;;;5011493;28;20462;-71
2022/07/26 01:23:57;;;;;;;2.07;1.43;;;23.70;97.30;;;;;;5011375;28;20525;-71
2022/07/26 01:26:24;;;;;;;3.50;1.90;;;23.90;96.00;;;;;;5011513;28;20463;-70
2022/07/26 01:28:51;;;;;;;2.30;1.70;;;23.70;96.70;;;;;;5011068;28;20463;-70
2022/07/26 01:31:21;;;;;;;3.20;2.00;;;23.70;97.30;;;;;;5011374;28;20530;-71
2022/07/26 01:33:48;;;;;;;2.63;2.07;;;23.70;97.00;;;;;;4995108;28;20459;-71
2022/07/26 01:36:16;;;;;;;2.13;1.60;;;23.80;98.00;;;;;;5015342;28;20463;-70
2022/07/26 01:38:45;;;;;;;3.13;1.77;;;23.90;98.00;;;;;;5015159;28;20490;-70
2022/07/26 01:41:12;;;;;;;2.20;1.70;;;23.80;98.00;;;;;;5015510;28;20463;-70
2022/07/26 01:43:39;;;;;;;2.70;2.00;;;23.50;98.00;;;;;;5015477;28;20463;-71
2022/07/26 01:46:08;;;;;;;2.37;1.60;;;23.10;98.00;;;;;;5015562;28;20455;-70
2022/07/26 01:48:37;;;;;;;2.00;1.50;;;22.50;98.00;;;;;;5015116;28;20518;-69
2022/07/26 01:51:04;;;;;;;5.80;1.60;;;22.10;98.00;;;;;;4997828;28;20460;-71
2022/07/26 01:53:32;;;;;;;1.70;1.43;;;21.90;98.00;;;;;;5015126;28;20467;-71
2022/07/26 01:56:00;;;;;;;1.93;1.57;;;21.60;98.00;;;;;;4981562;28;20451;-71
2022/07/26 01:58:27;;;;;;;2.07;1.43;;;21.20;98.00;;;;;;5014772;28;20483;-70
2022/07/26 02:00:55;;;;;;;2.73;1.90;;;21.10;98.00;;;;;;5015106;28;20455;-70
2022/07/26 02:03:22;;;;;;;2.17;2.00;;;21.10;98.00;;;;;;5014836;28;20472;-71
2022/07/26 02:05:52;;;;;;;2.53;2.00;;;21.00;98.00;;;;;;5014979;28;20459;-71
2022/07/26 02:08:19;;;;;;;1.83;1.40;;;21.10;98.00;;;;;;5014888;28;20463;-70
2022/07/26 02:11:01;;;;;;;2.17;1.60;;;21.10;98.00;;;;;;5015075;28;20463;-72
2022/07/26 02:13:31;;;;;;;2.00;1.60;;;21.00;98.00;;;;;;5014816;28;20455;-71
2022/07/26 02:15:58;;;;;;;1.50;1.40;;;21.00;98.00;;;;;;5014841;28;20832;-71
2022/07/26 02:18:28;;;;;;;2.07;1.70;;;20.90;98.00;;;;;;5014206;28;20483;-71
2022/07/26 02:20:56;;;;;;;3.10;1.90;;;21.00;98.00;;;;;;5014354;28;20478;-71
2022/07/26 02:23:24;;;;;;;1.57;1.37;;;20.90;98.00;;;;;;5014650;28;20873;-71
2022/07/26 02:25:52;;;;;;;1.90;1.53;;;20.80;98.00;;;;;;5014589;28;20462;-70
2022/07/26 02:28:19;;;;;;;1.80;1.70;;;20.70;98.00;;;;;;5014374;28;20462;-71
2022/07/26 02:30:48;;;;;;;1.70;1.40;;;20.70;98.00;;;;;;5014315;28;20467;-70
2022/07/26 02:33:15;;;;;;;2.00;1.73;;;20.80;98.00;;;;;;5014361;28;20478;-71
2022/07/26 02:35:43;;;;;;;1.77;1.53;;;20.80;98.00;;;;;;5014532;28;20463;-70
2022/07/26 02:38:15;;;;;;;1.60;1.40;;;20.80;98.00;;;;;;5014245;28;20500;-71
2022/07/26 02:40:44;;;;;;;2.20;1.50;;;20.80;98.00;;;;;;5014223;28;20462;-70
2022/07/26 02:43:11;;;;;;;1.90;1.60;;;20.70;98.00;;;;;;5014120;28;20522;-71
2022/07/26 02:45:39;;;;;;;1.70;1.50;;;20.70;98.00;;;;;;4996758;28;20819;-71
2022/07/26 02:48:08;;;;;;;3.63;1.53;;;20.70;98.00;;;;;;4996594;28;20451;-70
2022/07/26 02:50:35;;;;;;;1.93;1.63;;;20.70;98.00;;;;;;5014044;28;20494;-71
2022/07/26 02:53:02;;;;;;;1.97;1.60;;;20.70;98.00;;;;;;4996525;28;20463;-70
2022/07/26 02:55:30;;;;;;;1.80;1.67;;;20.60;98.00;;;;;;5013871;28;20459;-70
2022/07/26 02:57:57;;;;;;;2.07;1.70;;;20.60;98.00;;;;;;5014020;28;20474;-71
2022/07/26 03:00:26;;;;;;;1.93;1.83;;;20.80;98.00;;;;;;5013890;28;20521;-72
2022/07/26 03:02:54;;;;;;;2.17;1.80;;;20.70;98.00;;;;;;5013868;28;20876;-70
2022/07/26 03:05:23;;;;;;;2.57;1.43;;;20.70;98.00;;;;;;5013831;28;20459;-71
2022/07/26 03:07:50;;;;;;;2.63;1.90;;;20.60;98.00;;;;;;5013582;28;20455;-71
2022/07/26 03:10:17;;;;;;;1.47;1.40;;;20.50;98.00;;;;;;4996413;28;20961;-70
2022/07/26 03:12:44;;;;;;;1.60;1.40;;;20.50;98.00;;;;;;5013451;28;20506;-71
2022/07/26 03:15:12;;;;;;;2.00;1.40;;;20.40;98.00;;;;;;5013675;28;20467;-70
2022/07/26 03:17:39;;;;;;;2.17;1.70;;;20.30;98.00;;;;;;5013454;28;20462;-71
2022/07/26 03:20:08;;;;;;;1.90;1.37;;;20.40;98.00;;;;;;5013342;28;20498;-71
2022/07/26 03:22:36;;;;;;;2.07;1.40;;;20.40;98.00;;;;;;5013273;28;20486;-71
2022/07/26 03:25:04;;;;;;;2.40;1.63;;;20.40;98.00;;;;;;5013566;28;20861;-70
2022/07/26 03:27:31;;;;;;;1.80;1.40;;;20.30;98.00;;;;;;5013194;28;20459;-71
2022/07/26 03:30:01;;;;;;;2.20;1.57;;;20.10;98.00;;;;;;5013577;28;20497;-70
2022/07/26 03:32:28;;;;;;;1.73;1.40;;;20.00;98.00;;;;;;5013190;28;20479;-70
2022/07/26 03:34:55;;;;;;;1.53;1.40;;;20.00;98.00;;;;;;5013250;28;20485;-71
2022/07/26 03:37:22;;;;;;;2.10;1.40;;;20.00;98.00;;;;;;5013173;28;20553;-71
2022/07/26 03:39:51;;;;;;;1.93;1.30;;;19.90;98.00;;;;;;5012986;28;20527;-71
2022/07/26 03:42:20;;;;;;;2.37;1.60;;;19.90;98.00;;;;;;5013261;28;20804;-70
2022/07/26 03:44:47;;;;;;;1.93;1.53;;;20.10;98.00;;;;;;4995673;28;20459;-70
2022/07/26 03:47:14;;;;;;;2.23;1.80;;;20.20;98.00;;;;;;5012800;28;20459;-71
2022/07/26 03:49:41;;;;;;;2.27;1.70;;;20.30;98.00;;;;;;5012904;28;20875;-71
2022/07/26 03:52:09;;;;;;;1.73;1.53;;;20.10;98.00;;;;;;5013041;28;20939;-72
2022/07/26 03:54:36;;;;;;;2.60;1.60;;;20.10;98.00;;;;;;5012741;28;20459;-72
2022/07/26 03:57:06;;;;;;;1.60;1.50;;;20.10;98.00;;;;;;5012392;28;20464;-70
2022/07/26 03:59:33;;;;;;;1.63;1.50;;;20.30;98.00;;;;;;5012617;28;20541;-70
2022/07/26 04:02:00;;;;;;;1.80;1.60;;;20.40;98.00;;;;;;5012592;28;20823;-71
2022/07/26 04:04:27;;;;;;;2.17;1.60;;;20.30;98.00;;;;;;5012731;28;20459;-70
2022/07/26 04:06:55;;;;;;;2.83;1.57;;;20.40;98.00;;;;;;5012509;28;20455;-71
2022/07/26 04:09:22;;;;;;;1.30;1.20;;;20.30;98.00;;;;;;5012689;28;20455;-72
2022/07/26 04:11:50;;;;;;;1.70;1.50;;;20.20;98.00;;;;;;5012884;28;20467;-70
2022/07/26 04:14:18;;;;;;;1.53;1.40;;;20.20;98.00;;;;;;5012724;28;20459;-71
2022/07/26 04:16:45;;;;;;;2.17;1.60;;;20.00;98.00;;;;;;5012506;28;20470;-71
2022/07/26 04:19:13;;;;;;;3.73;1.80;;;20.10;98.00;;;;;;5012349;28;20496;-70
2022/07/26 04:21:40;;;;;;;2.13;1.50;;;20.10;98.00;;;;;;5012266;28;20470;-71
2022/07/26 04:24:09;;;;;;;1.53;1.47;;;20.00;98.00;;;;;;5012462;28;20817;-71
2022/07/26 04:26:36;;;;;;;1.60;1.40;;;20.00;98.00;;;;;;5012309;28;20953;-71
2022/07/26 04:29:04;;;;;;;1.83;1.53;;;20.00;98.00;;;;;;5012143;28;20463;-71
2022/07/26 04:31:33;;;;;;;2.73;1.47;;;20.00;98.00;;;;;;5012424;28;20459;-70
2022/07/26 04:34:00;;;;;;;2.33;1.40;;;19.90;98.00;;;;;;5012222;28;20977;-70
2022/07/26 04:36:28;;;;;;;1.87;1.70;;;19.80;98.00;;;;;;5012141;28;20459;-70
2022/07/26 04:38:55;;;;;;;1.50;1.33;;;19.70;98.00;;;;;;4994372;28;20495;-70
2022/07/26 04:41:22;;;;;;;1.90;1.53;;;19.60;98.00;;;;;;5012055;28;20452;-72
2022/07/26 04:43:50;;;;;;;1.50;1.20;;;19.60;98.00;;;;;;5011973;28;20460;-71
2022/07/26 04:46:18;;;;;;;2.27;1.30;;;19.80;98.00;;;;;;5012023;28;20464;-70
2022/07/26 04:48:46;;;;;;;1.80;1.37;;;20.00;98.00;;;;;;5011741;28;20466;-71
2022/07/26 04:51:13;;;;;;;2.47;1.60;;;19.90;98.00;;;;;;5011770;28;20459;-70
2022/07/26 04:53:41;;;;;;;2.07;1.80;;;19.70;98.00;;;;;;5011743;28;20513;-72
2022/07/26 04:56:08;;;;;;;2.30;1.60;;;19.80;98.00;;;;;;4978474;28;20470;-70
2022/07/26 04:58:35;;;;;;;1.70;1.40;;;19.70;98.00;;;;;;5011522;28;20531;-71
2022/07/26 05:01:02;;;;;;;3.60;1.87;;;19.70;98.00;;;;;;5011785;28;20466;-71
2022/07/26 05:03:30;;;;;;;1.70;1.40;;;19.70;98.00;;;;;;5011643;28;20462;-70
2022/07/26 05:05:58;;;;;;;3.83;1.90;;;19.80;98.00;;;;;;4994389;28;20455;-71
2022/07/26 05:08:25;;;;;;;1.63;1.60;;;19.80;98.00;;;;;;5010878;28;20458;-72
2022/07/26 05:10:54;;;;;;;1.80;1.40;;;19.60;98.00;;;;;;5011720;28;20463;-71
2022/07/26 05:13:21;;;;;;;2.13;1.67;;;19.70;98.00;;;;;;5011852;28;20467;-71
2022/07/26 05:15:49;;;;;;;2.60;1.53;;;19.70;98.00;;;;;;5011642;28;20482;-70
2022/07/26 05:18:16;;;;;;;2.73;1.40;;;19.70;98.00;;;;;;5011408;28;20618;-70
2022/07/26 05:20:43;;;;;;;1.93;1.40;;;19.50;98.00;;;;;;5011166;28;20495;-71
2022/07/26 05:23:11;;;;;;;1.80;1.40;;;19.50;98.00;;;;;;5011446;28;20840;-72
2022/07/26 05:25:40;;;;;;;1.83;1.57;;;19.70;98.00;;;;;;5011560;28;20826;-69
2022/07/26 05:28:07;;;;;;;1.67;1.50;;;19.90;98.00;;;;;;5011570;28;20452;-70
2022/07/26 05:30:34;;;;;;;1.90;1.60;;;19.90;98.00;;;;;;5011295;28;20451;-72
2022/07/26 05:33:02;;;;;;;2.77;1.73;;;19.90;98.00;;;;;;5011253;28;20460;-70
2022/07/26 05:35:29;;;;;;;2.50;1.70;;;20.10;98.00;;;;;;5011286;28;20568;-70
2022/07/26 05:37:56;;;;;;;2.00;1.60;;;20.10;98.00;;;;;;5011100;28;20479;-70
2022/07/26 05:40:25;;;;;;;1.50;1.30;;;20.20;98.00;;;;;;5011216;28;20483;-71
2022/07/26 05:42:52;;;;;;;2.47;1.60;;;20.30;98.00;;;;;;5011314;28;20916;-71
2022/07/26 05:45:20;;;;;;;1.63;1.57;;;20.30;98.00;;;;;;5011380;28;20459;-71
2022/07/26 05:47:49;;;;;;;2.50;1.90;;;20.30;98.00;;;;;;5011047;28;20459;-69
2022/07/26 05:50:18;;;;;;;3.40;1.73;;;20.40;98.00;;;;;;5011297;28;20462;-68
2022/07/26 05:52:46;;;;;;;2.30;1.60;;;20.40;98.00;;;;;;5011112;28;20892;-69
2022/07/26 05:55:14;;;;;;;1.87;1.70;;;20.50;98.00;;;;;;5011326;28;20816;-69
2022/07/26 05:57:46;;;;;;;1.97;1.60;;;20.50;98.00;;;;;;5011173;28;20463;-67
2022/07/26 06:00:13;;;;;;;2.23;1.70;;;20.50;98.00;;;;;;5011136;28;20489;-67
2022/07/26 06:02:41;;;;;;;2.90;1.93;;;20.60;98.00;;;;;;5011059;28;20459;-68
2022/07/26 06:05:09;;;;;;;2.30;1.70;;;20.80;98.00;;;;;;5011138;28;20468;-67
2022/07/26 06:07:36;;;;;;;1.80;1.60;;;21.00;98.00;;;;;;5011110;28;20462;-67
2022/07/26 06:10:03;;;;;;;1.73;1.50;;;21.00;98.00;;;;;;5011378;28;20517;-67
2022/07/26 06:12:32;;;;;;;2.07;1.63;;;21.10;98.00;;;;;;5011246;28;20467;-68
2022/07/26 06:15:00;;;;;;;1.53;1.47;;;21.30;98.00;;;;;;5011164;28;20543;-67
2022/07/26 06:17:28;;;;;;;1.70;1.50;;;21.50;98.00;;;;;;5010860;28;20475;-68
2022/07/26 06:19:56;;;;;;;2.00;1.60;;;21.60;98.00;;;;;;5011317;28;21000;-68
2022/07/26 06:22:23;;;;;;;2.33;1.77;;;21.90;98.00;;;;;;5014613;28;20458;-68
2022/07/26 06:24:50;;;;;;;1.67;1.47;;;22.10;98.00;;;;;;5014685;28;20463;-67
2022/07/26 06:27:17;;;;;;;3.33;1.97;;;22.40;98.00;;;;;;5014370;28;20474;-67
2022/07/26 06:29:47;;;;;;;2.70;1.90;;;22.60;98.00;;;;;;5014354;28;20517;-68
2022/07/26 06:32:15;;;;;;;1.97;1.60;;;22.70;98.00;;;;;;4996922;28;20462;-67
2022/07/26 06:34:43;;;;;;;1.93;1.60;;;22.60;98.00;;;;;;5014314;28;20460;-67
2022/07/26 06:37:10;;;;;;;2.30;1.80;;;22.40;98.00;;;;;;5014472;28;20460;-68
2022/07/26 06:39:37;;;;;;;2.80;2.00;;;22.10;98.00;;;;;;5014050;28;20487;-67
2022/07/26 06:42:05;;;;;;;2.00;1.73;;;21.90;98.00;;;;;;5014338;28;20463;-67
2022/07/26 06:44:32;;;;;;;2.63;1.80;;;21.80;98.00;;;;;;5013742;28;20459;-67
2022/07/26 06:46:59;;;;;;;2.50;1.97;;;21.90;98.00;;;;;;5014400;28;20472;-67
2022/07/26 06:49:28;;;;;;;2.13;1.60;;;22.00;98.00;;;;;;5014201;28;20456;-67
2022/07/26 06:51:58;;;;;;;3.33;1.70;;;22.10;98.00;;;;;;5013984;28;20467;-67
2022/07/26 06:54:25;;;;;;;2.63;1.80;;;22.30;98.00;;;;;;5013901;28;20463;-67
2022/07/26 06:56:52;;;;;;;2.63;1.93;;;22.50;98.00;;;;;;4996598;28;20479;-67
2022/07/26 06:59:19;;;;;;;2.30;1.57;;;22.50;98.00;;;;;;5013401;28;20483;-67
2022/07/26 07:01:47;;;;;;;1.90;1.57;;;22.60;98.00;;;;;;5013789;28;20529;-68
2022/07/26 07:04:14;;;;;;;2.13;1.77;;;22.70;98.00;;;;;;5009932;28;20455;-67
2022/07/26 07:06:42;;;;;;;2.33;1.60;;;22.70;98.00;;;;;;5011249;28;20459;-67
2022/07/26 07:09:09;;;;;;;1.87;1.60;;;22.80;98.00;;;;;;5011176;28;20822;-67
2022/07/26 07:11:37;;;;;;;2.10;1.90;;;22.60;98.00;;;;;;4993706;28;20466;-67
2022/07/26 07:14:04;;;;;;;2.07;1.70;;;22.50;98.00;;;;;;5012711;28;20455;-69
2022/07/26 07:16:31;;;;;;;2.10;1.77;;;22.30;98.00;;;;;;5013648;28;20470;-72
2022/07/26 07:18:58;;;;;;;2.17;1.50;;;22.20;98.00;;;;;;5013193;28;20776;-72
2022/07/26 07:21:26;;;;;;;2.70;1.80;;;22.20;98.00;;;;;;5012680;28;20483;-75
2022/07/26 07:23:56;;;;;;;2.70;1.80;;;22.30;98.00;;;;;;4995078;28;20510;-74
2022/07/26 07:26:24;;;;;;;1.60;1.40;;;22.30;98.00;;;;;;5013500;28;20459;-75
2022/07/26 07:28:51;;;;;;;2.90;2.03;;;22.50;98.00;;;;;;5013402;28;21062;-74
2022/07/26 07:31:19;;;;;;;2.10;1.60;;;22.70;98.00;;;;;;5012689;28;20463;-76
2022/07/26 07:33:46;;;;;;;2.10;1.70;;;22.70;98.00;;;;;;5013224;28;20467;-76
2022/07/26 07:36:13;;;;;;;1.97;1.67;;;22.70;98.00;;;;;;5013594;28;20470;-74
2022/07/26 07:38:40;;;;;;;2.57;1.90;;;22.70;98.00;;;;;;5013063;28;20463;-75
2022/07/26 07:41:08;;;;;;;3.60;2.00;;;22.70;98.00;;;;;;5013232;28;20487;-75
2022/07/26 07:43:36;;;;;;;2.40;1.70;;;22.70;98.00;;;;;;5013181;28;20459;-75
2022/07/26 07:46:04;;;;;;;1.73;1.30;;;22.80;98.00;;;;;;4995630;28;20444;-76
2022/07/26 07:48:31;;;;;;;2.30;1.83;;;23.00;98.00;;;;;;5012984;28;20459;-74
2022/07/26 07:50:58;;;;;;;2.00;1.80;;;23.20;98.00;;;;;;5013025;28;20463;-77
2022/07/26 07:53:25;;;;;;;1.57;1.50;;;23.20;98.00;;;;;;5012802;28;20464;-69
2022/07/26 07:55:52;;;;;;;1.87;1.50;;;23.20;98.00;;;;;;5012953;28;20455;-75
2022/07/26 07:58:21;;;;;;;3.30;1.67;;;23.20;98.00;;;;;;5012952;28;20614;-75
2022/07/26 08:00:48;;;;;;;1.87;1.67;;;23.10;98.00;;;;;;4995161;28;20487;-74
2022/07/26 08:03:16;;;;;;;2.10;1.70;;;23.20;98.00;;;;;;4995456;28;20895;-75
2022/07/26 08:05:43;;;;;;;1.77;1.50;;;23.30;98.00;;;;;;5012708;28;20470;-75
2022/07/26 08:08:11;;;;;;;2.30;1.80;;;23.40;98.00;;;;;;4995271;28;20479;-75
2022/07/26 08:10:38;;;;;;;4.90;1.90;;;23.60;98.00;;;;;;5012140;28;20459;-75
2022/07/26 08:13:06;;;;;;;1.83;1.50;;;23.80;97.30;;;;;;4995302;28;20948;-75
2022/07/26 08:15:34;;;;;;;2.13;1.63;;;23.90;95.00;;;;;;5012746;28;20958;-75
2022/07/26 08:18:01;;;;;;;2.90;1.80;;;24.00;94.90;;;;;;5012808;28;20470;-74
2022/07/26 08:20:30;;;;;;;1.80;1.57;;;24.20;92.50;;;;;;5012607;28;20491;-76
2022/07/26 08:22:57;;;;;;;2.00;1.60;;;24.30;92.70;;;;;;5012639;28;20938;-75
2022/07/26 08:25:25;;;;;;;3.17;1.50;;;24.40;91.00;;;;;;5012509;28;20482;-76
2022/07/26 08:27:52;;;;;;;2.83;1.80;;;24.50;92.00;;;;;;5012294;28;20463;-76
2022/07/26 08:30:19;;;;;;;2.13;1.57;;;24.70;92.80;;;;;;5012227;28;20452;-76
2022/07/26 08:32:47;;;;;;;1.90;1.70;;;24.90;91.80;;;;;;5012302;28;20697;-75
2022/07/26 08:35:14;;;;;;;1.70;1.50;;;24.90;90.80;;;;;;5012168;28;20459;-75
2022/07/26 08:37:42;;;;;;;1.90;1.70;;;25.00;90.70;;;;;;5012248;28;20455;-74
2022/07/26 08:40:09;;;;;;;4.00;2.00;;;25.10;91.20;;;;;;4994685;28;20490;-75
2022/07/26 08:42:36;;;;;;;2.07;1.50;;;25.30;89.80;;;;;;5012267;28;20456;-75
2022/07/26 08:45:04;;;;;;;1.93;1.70;;;25.40;88.40;;;;;;5012014;28;20468;-76
2022/07/26 08:47:31;;;;;;;3.83;1.63;;;25.40;89.40;;;;;;5012353;28;20463;-75
2022/07/26 08:49:59;;;;;;;1.97;1.60;;;25.40;87.40;;;;;;5012108;28;20467;-75
2022/07/26 08:52:26;;;;;;;2.10;1.63;;;25.50;89.20;;;;;;5012029;28;20467;-74
2022/07/26 08:54:54;;;;;;;1.63;1.50;;;25.50;87.60;;;;;;5011827;28;20466;-76
2022/07/26 08:57:21;;;;;;;3.50;2.60;;;25.60;86.70;;;;;;4994626;28;20460;-75
2022/07/26 09:00:15;;;;;;;3.80;2.63;;;25.50;86.10;;;;;;5011869;28;20471;-75
2022/07/26 09:02:42;;;;;;;1.93;1.77;;;25.50;86.50;;;;;;4994393;28;20841;-75
2022/07/26 09:05:11;;;;;;;3.30;2.23;;;25.50;88.00;;;;;;5011871;28;20452;-76
2022/07/26 09:07:38;;;;;;;2.33;1.90;;;25.70;89.80;;;;;;5011687;28;20887;-73
2022/07/26 09:10:10;;;;;;;7.00;2.07;;;26.00;87.90;;;;;;5011573;28;20802;-76
2022/07/26 09:12:38;;;;;;;2.33;1.97;;;26.10;86.50;;;;;;5011606;28;20451;-75
2022/07/26 09:15:08;;;;;;;1.63;1.50;;;26.20;86.90;;;;;;4994133;28;20463;-74
2022/07/26 09:17:40;;;;;;;3.00;2.10;;;26.20;86.70;;;;;;5011737;28;20451;-77
2022/07/26 09:20:12;;;;;;;2.07;1.60;;;26.20;85.80;;;;;;5011546;28;20484;-74
2022/07/26 09:22:55;;;;;;;1.50;1.47;;;26.10;83.30;;;;;;5011768;28;20456;-76
2022/07/26 09:25:23;;;;;;;2.13;1.67;;;26.20;85.50;;;;;;5011721;28;20455;-74
2022/07/26 09:27:51;;;;;;;1.77;1.60;;;26.20;84.30;;;;;;5011395;28;20462;-64
2022/07/26 09:30:19;;;;;;;1.67;1.47;;;26.00;83.50;;;;;;5011570;28;20459;-73
2022/07/26 09:32:58;;;;;;;2.10;1.60;;;26.00;84.10;;;;;;5012036;28;20476;-77
2022/07/26 09:35:28;;;;;;;1.70;1.30;;;25.90;84.50;;;;;;5011823;28;20962;-74
2022/07/26 09:37:56;;;;;;;2.17;1.50;;;25.90;83.20;;;;;;5011991;28;20522;-77
2022/07/26 09:40:24;;;;;;;4.13;1.87;;;26.00;84.70;;;;;;5012215;28;20486;-76
2022/07/26 09:42:56;;;;;;;1.50;1.40;;;26.20;82.60;;;;;;5011995;28;20463;-74
2022/07/26 09:45:23;;;;;;;1.87;1.60;;;26.20;82.80;;;;;;5012123;28;20463;-76
2022/07/26 09:47:51;;;;;;;1.40;1.33;;;25.90;81.80;;;;;;5011985;28;20945;-74
2022/07/26 09:50:22;;;;;;;1.70;1.53;;;25.70;83.50;;;;;;5011820;28;20459;-77
2022/07/26 09:53:09;;;;;;;1.73;1.50;;;25.70;84.20;;;;;;5012231;28;20524;-75
2022/07/26 09:55:53;;;;;;;1.70;1.50;;;25.70;83.40;;;;;;5014383;28;20467;-76
2022/07/26 09:58:21;;;;;;;3.10;1.63;;;25.90;83.60;;;;;;5015892;28;20517;-74
2022/07/26 10:00:49;;;;;;;1.50;1.40;;;26.30;83.70;;;;;;5015822;28;20490;-75
2022/07/26 10:03:16;;;;;;;2.60;1.60;;;26.70;82.90;;;;;;5015876;28;20459;-77
2022/07/26 10:05:43;;;;;;;1.90;1.43;;;26.90;81.20;;;;;;5015925;28;20462;-76
2022/07/26 10:08:13;;;;;;;2.00;1.60;;;26.90;81.20;;;;;;5015678;28;20543;-76
2022/07/26 10:10:43;;;;;;;1.70;1.60;;;26.60;80.10;;;;;;5015703;28;20451;-75
2022/07/26 10:13:12;;;;;;;2.17;1.60;;;26.30;81.50;;;;;;5015649;28;20517;-75
2022/07/26 10:15:43;;;;;;;2.80;1.50;;;26.10;83.20;;;;;;4998489;28;20459;-76
2022/07/26 10:18:46;;;;;;;2.13;1.30;;;25.90;82.40;;;;;;5015857;28;20460;-76
2022/07/26 10:21:23;;;;;;;2.17;1.50;;;25.90;82.70;;;;;;5015359;28;20487;-74
2022/07/26 10:23:55;;;;;;;2.33;1.47;;;26.10;82.30;;;;;;5015369;28;20463;-74
2022/07/26 10:26:44;;;;;;;1.73;1.63;;;26.30;81.90;;;;;;5015488;28;21099;-75
2022/07/26 10:29:27;;;;;;;1.77;1.70;;;26.20;81.10;;;;;;5015237;28;20977;-75
2022/07/26 10:32:13;;;;;;;1.83;1.50;;;25.80;82.60;;;;;;5013894;28;20463;-75
2022/07/26 10:34:41;;;;;;;1.40;1.33;;;25.90;83.00;;;;;;5015151;28;20461;-77
2022/07/26 10:37:10;;;;;;;1.67;1.50;;;26.20;82.20;;;;;;5014975;28;20460;-73
2022/07/26 10:39:39;;;;;;;1.47;1.30;;;26.40;82.50;;;;;;5014909;28;20547;-74
2022/07/26 10:42:08;;;;;;;5.63;1.90;;;26.50;82.10;;;;;;5014718;28;20483;-75
2022/07/26 10:44:38;;;;;;;1.57;1.40;;;26.80;80.90;;;;;;5013966;28;20464;-76
2022/07/26 10:47:14;;;;;;;1.50;1.40;;;26.90;79.40;;;;;;5014167;28;20962;-74
2022/07/26 10:49:45;;;;;;;2.23;1.60;;;26.90;81.20;;;;;;5014068;28;21073;-77
2022/07/26 10:52:17;;;;;;;2.17;1.50;;;27.10;81.40;;;;;;5014343;28;20451;-74
2022/07/26 10:55:18;;;;;;;1.90;1.53;;;27.40;80.80;;;;;;5013982;28;20471;-76
2022/07/26 10:57:47;;;;;;;1.70;1.43;;;27.70;79.20;;;;;;5014019;28;20466;-77
2022/07/26 11:00:18;;;;;;;2.23;2.03;;;27.80;77.60;;;;;;5013393;28;20487;-76
2022/07/26 11:03:07;;;;;;;1.80;1.80;;;27.90;79.50;;;;;;5013922;28;20813;-69
2022/07/26 11:05:34;;;;;;;1.80;1.63;;;27.90;79.10;;;;;;5013381;28;20463;-63
2022/07/26 11:08:10;;;;;;;1.70;1.70;;;27.80;78.00;;;;;;5013224;28;20481;-64
2022/07/26 11:10:41;;;;;;;1.67;1.50;;;27.60;78.30;;;;;;5013779;28;20459;-63
2022/07/26 11:13:17;;;;;;;1.70;1.60;;;27.80;79.70;;;;;;5013720;28;20954;-64
2022/07/26 11:15:47;;;;;;;1.50;1.33;;;28.10;79.10;;;;;;5013837;28;21128;-63
2022/07/26 11:18:18;;;;;;;2.30;1.50;;;28.20;77.50;;;;;;4996218;28;20506;-64
2022/07/26 11:20:48;;;;;;;1.80;1.50;;;28.30;77.20;;;;;;5013607;28;21009;-63
2022/07/26 11:23:30;;;;;;;1.77;1.70;;;28.10;77.90;;;;;;5013556;28;20981;-64
2022/07/26 11:26:14;;;;;;;1.60;1.60;;;28.10;77.10;;;;;;5013340;28;20459;-64
2022/07/26 11:28:57;;;;;;;1.70;1.50;;;28.40;79.20;;;;;;5013380;28;20459;-64
2022/07/26 11:31:36;;;;;;;2.67;1.60;;;28.50;77.80;;;;;;5013238;28;20978;-63
2022/07/26 11:34:05;;;;;;;3.53;1.70;;;28.70;77.20;;;;;;5013286;28;20459;-63
2022/07/26 11:36:35;;;;;;;1.97;1.70;;;28.80;76.50;;;;;;5013699;28;20455;-63
2022/07/26 11:39:03;;;;;;;2.33;1.57;;;29.00;77.10;;;;;;5013785;28;20466;-63
2022/07/26 11:41:35;;;;;;;2.27;1.43;;;29.30;75.60;;;;;;5013625;28;20484;-64
2022/07/26 11:44:03;;;;;;;1.40;1.40;;;29.50;74.40;;;;;;5013727;28;20491;-63
2022/07/26 11:46:46;;;;;;;2.13;1.67;;;29.50;74.00;;;;;;5013659;28;20459;-63
2022/07/26 11:49:16;;;;;;;4.03;1.70;;;29.60;74.60;;;;;;5013717;28;20452;-63
2022/07/26 11:51:51;;;;;;;2.47;1.80;;;29.70;73.00;;;;;;5013619;28;20455;-63
2022/07/26 11:54:19;;;;;;;6.70;2.10;;;29.30;74.50;;;;;;5013266;28;20486;-63
2022/07/26 11:56:56;;;;;;;1.60;1.60;;;29.50;73.10;;;;;;5013428;28;20463;-63
2022/07/26 11:59:25;;;;;;;1.50;1.40;;;29.50;75.10;;;;;;5013609;28;20494;-64
2022/07/26 12:01:53;;;;;;;1.70;1.50;;;29.70;72.10;;;;;;5013642;28;20491;-64
2022/07/26 12:04:23;;;;;;;1.80;1.40;;;29.70;72.00;;;;;;5013513;28;20974;-70
2022/07/26 12:06:51;;;;;;;1.53;1.50;;;29.00;73.40;;;;;;5013547;28;20474;-71
2022/07/26 12:09:32;;;;;;;1.73;1.60;;;28.30;74.50;;;;;;5013456;28;20463;-69
2022/07/26 12:12:01;;;;;;;1.60;1.50;;;28.40;75.30;;;;;;5013331;28;20539;-72
2022/07/26 12:14:30;;;;;;;1.50;1.30;;;28.50;73.50;;;;;;5012445;28;20459;-66
2022/07/26 12:16:58;;;;;;;1.50;1.30;;;28.90;73.30;;;;;;5012413;28;20463;-65
2022/07/26 12:19:28;;;;;;;2.63;1.50;;;29.30;72.00;;;;;;5012193;28;20478;-68
2022/07/26 12:21:59;;;;;;;1.63;1.40;;;29.20;73.60;;;;;;5012560;28;20484;-66
2022/07/26 12:24:56;;;;;;;2.00;1.37;;;29.50;73.40;;;;;;5012661;28;20463;-69
2022/07/26 12:27:26;;;;;;;2.10;1.40;;;29.80;72.50;;;;;;4978815;28;20499;-69
2022/07/26 12:29:54;;;;;;;1.60;1.50;;;30.20;71.00;;;;;;5012331;28;20463;-71
2022/07/26 12:32:23;;;;;;;2.23;1.60;;;30.50;70.10;;;;;;5012413;28;20463;-72
2022/07/26 12:35:01;;;;;;;1.90;1.53;;;30.70;69.30;;;;;;5012234;28;20462;-70
2022/07/26 12:37:30;;;;;;;1.70;1.40;;;30.80;68.40;;;;;;5012688;28;20464;-71
2022/07/26 12:40:03;;;;;;;1.50;1.50;;;30.40;68.40;;;;;;5012556;28;20459;-72
2022/07/26 12:42:33;;;;;;;1.60;1.50;;;30.00;69.40;;;;;;5011181;28;20574;-73
2022/07/26 12:45:01;;;;;;;1.50;1.40;;;29.70;69.00;;;;;;5009454;28;20965;-71
2022/07/26 12:47:28;;;;;;;1.73;1.50;;;29.20;71.30;;;;;;5009940;28;20467;-65
2022/07/26 12:49:56;;;;;;;1.70;1.40;;;29.50;70.20;;;;;;5007548;28;21564;-69
2022/07/26 12:52:24;;;;;;;1.70;1.53;;;29.60;69.50;;;;;;5009949;28;20456;-65
2022/07/26 12:54:53;;;;;;;3.63;1.70;;;29.80;69.70;;;;;;5009699;28;20440;-71
2022/07/26 12:57:21;;;;;;;1.40;1.40;;;29.90;66.80;;;;;;5009815;28;20456;-70
2022/07/26 12:59:49;;;;;;;1.87;1.50;;;30.00;67.30;;;;;;5009718;28;20463;-66